Time;durP1;ratioP1;P1;durP2;ratioP2;P2;SDS_P1;SDS_P2;PMS_P1;PMS_P2;Temp;Humidity;BMP_temperature;BMP_pressure;BME280_temperature;BME280_humidity;BME280_pressure;Samples;Min_cycle;Max_cycle;Signal;HPM_P1;HPM_P2
2021/12/09 00:00:30;;;;;;;6.60;2.58;;;;;;;1.32;92.05;96072.38;5014531;28;20041;-56
2021/12/09 00:03:05;;;;;;;6.60;2.90;;;;;;;1.24;91.67;96076.19;5024959;28;20041;-56
2021/12/09 00:05:34;;;;;;;6.45;3.28;;;;;;;1.22;91.58;96072.91;5024517;28;20677;-52
2021/12/09 00:08:03;;;;;;;8.20;2.70;;;;;;;1.33;92.06;96067.88;5027627;28;20409;-54
2021/12/09 00:10:30;;;;;;;5.88;2.97;;;;;;;1.56;90.80;96080.50;5035399;28;20045;-53
2021/12/09 00:12:56;;;;;;;6.47;2.65;;;;;;;1.40;91.30;96079.28;5018514;28;20046;-55
2021/12/09 00:15:23;;;;;;;11.77;4.10;;;;;;;1.45;91.33;96068.75;5006979;28;20068;-55
2021/12/09 00:17:50;;;;;;;11.48;3.83;;;;;;;1.51;91.37;96070.50;5011783;28;20095;-56
2021/12/09 00:20:18;;;;;;;11.77;5.90;;;;;;;1.61;91.41;96071.78;5017199;28;20042;-54
2021/12/09 00:22:46;;;;;;;11.65;6.03;;;;;;;1.57;90.83;96071.44;5011998;28;20044;-56
2021/12/09 00:25:14;;;;;;;16.48;5.55;;;;;;;1.64;91.04;96069.50;5026049;28;20547;-56
2021/12/09 00:27:43;;;;;;;14.85;6.35;;;;;;;1.64;90.91;96074.84;5021092;28;20038;-55
2021/12/09 00:30:11;;;;;;;12.85;5.70;;;;;;;1.67;90.84;96074.38;5005983;28;20045;-56
2021/12/09 00:32:39;;;;;;;17.60;7.22;;;;;;;1.76;90.62;96082.06;5017179;28;20060;-56
2021/12/09 00:35:08;;;;;;;12.02;5.28;;;;;;;1.80;90.07;96078.72;5037790;28;20045;-54
2021/12/09 00:37:49;;;;;;;10.15;5.50;;;;;;;1.76;90.22;96076.72;5039048;28;20041;-54
2021/12/09 00:40:16;;;;;;;15.77;6.32;;;;;;;1.86;90.35;96074.34;5023515;28;20041;-55
2021/12/09 00:42:43;;;;;;;17.73;6.15;;;;;;;1.83;90.35;96082.00;5024986;28;20045;-56
2021/12/09 00:45:09;;;;;;;11.77;5.50;;;;;;;1.81;89.80;96071.53;5025410;28;20072;-56
2021/12/09 00:47:36;;;;;;;13.85;6.13;;;;;;;1.73;90.31;96077.19;5017938;28;20517;-54
2021/12/09 00:50:03;;;;;;;13.95;5.80;;;;;;;1.74;90.25;96078.81;5012333;28;20057;-54
2021/12/09 00:52:30;;;;;;;9.95;4.80;;;;;;;1.76;90.36;96084.72;5026527;28;20112;-54
2021/12/09 00:54:58;;;;;;;13.43;5.85;;;;;;;1.73;90.06;96080.66;5025663;28;20038;-49
2021/12/09 00:57:24;;;;;;;11.80;5.18;;;;;;;1.77;89.91;96084.50;5024114;28;20508;-50
2021/12/09 00:59:52;;;;;;;9.85;5.68;;;;;;;1.73;89.69;96077.19;5023491;28;20080;-54
2021/12/09 01:02:19;;;;;;;12.50;4.97;;;;;;;1.68;89.80;96084.03;5012093;28;20093;-56
2021/12/09 01:04:47;;;;;;;9.20;5.05;;;;;;;1.73;89.70;96085.19;5028975;28;20030;-56
2021/12/09 01:07:14;;;;;;;16.08;6.47;;;;;;;1.71;89.59;96081.94;5025287;28;20496;-54
2021/12/09 01:09:42;;;;;;;13.98;5.45;;;;;;;1.68;89.82;96081.34;5025562;28;20049;-53
2021/12/09 01:12:09;;;;;;;14.75;5.22;;;;;;;1.63;89.46;96093.75;5021375;28;20029;-49
2021/12/09 01:14:37;;;;;;;14.88;4.65;;;;;;;1.68;90.08;96089.38;5006879;28;20050;-50
2021/12/09 01:17:06;;;;;;;11.30;5.88;;;;;;;1.67;89.75;96097.59;5022379;28;20034;-53
2021/12/09 01:19:33;;;;;;;14.23;5.38;;;;;;;1.65;89.37;96092.47;5022148;28;20041;-53
2021/12/09 01:21:59;;;;;;;19.27;5.18;;;;;;;1.64;89.61;96098.88;5022536;28;20041;-54
2021/12/09 01:24:26;;;;;;;9.45;4.80;;;;;;;1.68;89.45;96107.22;5030372;28;20045;-53
2021/12/09 01:26:53;;;;;;;10.27;5.07;;;;;;;1.65;89.11;96108.50;5024773;28;20679;-54
2021/12/09 01:29:28;;;;;;;18.70;5.05;;;;;;;1.59;89.34;96108.56;5025024;28;20053;-53
2021/12/09 01:32:00;;;;;;;14.57;5.18;;;;;;;1.52;89.93;96104.13;5018851;28;20726;-53
2021/12/09 01:34:27;;;;;;;13.70;5.90;;;;;;;1.49;89.91;96101.09;5045459;28;20061;-49
2021/12/09 01:36:55;;;;;;;12.15;5.22;;;;;;;1.47;89.55;96096.00;5040601;28;20052;-50
2021/12/09 01:39:22;;;;;;;10.15;4.35;;;;;;;1.50;89.99;96108.06;5025519;28;20049;-54
2021/12/09 01:41:48;;;;;;;12.75;4.95;;;;;;;1.49;89.40;96109.13;5022241;28;20437;-54
2021/12/09 01:44:15;;;;;;;10.27;5.45;;;;;;;1.46;89.56;96112.22;5018331;28;20125;-55
2021/12/09 01:46:42;;;;;;;15.52;5.40;;;;;;;1.44;90.22;96117.81;5028267;28;20045;-54
2021/12/09 01:49:09;;;;;;;8.90;5.60;;;;;;;1.36;89.96;96126.91;5028650;28;20094;-54
2021/12/09 01:51:35;;;;;;;13.52;5.03;;;;;;;1.32;90.24;96123.06;5042017;28;20087;-54
2021/12/09 01:54:02;;;;;;;16.80;6.28;;;;;;;1.37;89.72;96125.84;5028808;28;20053;-53
2021/12/09 01:56:29;;;;;;;11.98;5.18;;;;;;;1.39;90.45;96128.31;5024920;28;20048;-55
2021/12/09 01:59:03;;;;;;;9.98;4.93;;;;;;;1.43;89.42;96134.81;5028563;28;20042;-53
2021/12/09 02:01:31;;;;;;;18.13;5.30;;;;;;;1.40;89.71;96135.28;5029808;28;20037;-55
2021/12/09 02:03:59;;;;;;;9.45;5.40;;;;;;;1.42;89.52;96123.34;5047371;28;20045;-55
2021/12/09 02:06:27;;;;;;;12.57;5.03;;;;;;;1.43;89.70;96127.66;5032490;28;20050;-54
2021/12/09 02:08:54;;;;;;;11.23;5.60;;;;;;;1.48;89.62;96129.66;5028647;28;20049;-55
2021/12/09 02:11:22;;;;;;;13.45;5.80;;;;;;;1.51;88.93;96120.38;5027516;28;20436;-55
2021/12/09 02:13:51;;;;;;;8.20;4.28;;;;;;;1.46;89.00;96121.06;5026371;28;20045;-55
2021/12/09 02:16:18;;;;;;;7.70;4.43;;;;;;;1.46;89.24;96133.56;5031459;28;20037;-54
2021/12/09 02:18:45;;;;;;;17.70;5.20;;;;;;;1.44;88.89;96128.47;5020110;28;20049;-55
2021/12/09 02:21:16;;;;;;;12.43;4.53;;;;;;;1.49;88.80;96135.78;5027947;28;20041;-52
2021/12/09 02:23:46;;;;;;;11.30;4.78;;;;;;;1.50;88.76;96145.41;5017493;28;20052;-53
2021/12/09 02:26:16;;;;;;;12.48;5.03;;;;;;;1.43;88.83;96154.31;5026724;28;20060;-52
2021/12/09 02:28:43;;;;;;;11.07;4.82;;;;;;;1.43;89.11;96158.84;5027813;28;20091;-50
2021/12/09 02:31:11;;;;;;;11.00;5.50;;;;;;;1.43;88.39;96164.16;5026813;28;20068;-50
2021/12/09 02:33:38;;;;;;;11.85;4.80;;;;;;;1.41;89.05;96171.59;5026023;28;20050;-54
2021/12/09 02:36:06;;;;;;;11.23;4.95;;;;;;;1.41;88.82;96182.25;5027424;28;20576;-53
2021/12/09 02:38:35;;;;;;;10.30;4.55;;;;;;;1.40;88.53;96181.44;5037140;28;20054;-55
2021/12/09 02:41:02;;;;;;;14.02;5.10;;;;;;;1.43;88.46;96185.50;5046233;28;20052;-54
2021/12/09 02:43:30;;;;;;;11.80;4.45;;;;;;;1.47;88.15;96177.91;5047263;28;20045;-51
2021/12/09 02:45:57;;;;;;;11.20;4.15;;;;;;;1.46;88.25;96185.06;5027573;28;20729;-54
2021/12/09 02:48:24;;;;;;;12.93;3.83;;;;;;;1.47;88.20;96178.69;5025730;28;20049;-55
2021/12/09 02:50:51;;;;;;;11.75;5.38;;;;;;;1.38;88.39;96188.03;5027100;28;20041;-55
2021/12/09 02:53:18;;;;;;;8.05;4.10;;;;;;;1.40;88.30;96188.66;5008276;28;20049;-53
2021/12/09 02:55:45;;;;;;;7.80;3.63;;;;;;;1.48;88.19;96187.53;5008481;28;20472;-55
2021/12/09 02:58:12;;;;;;;10.85;3.90;;;;;;;1.47;88.49;96177.91;5021470;28;20048;-55
2021/12/09 03:00:57;;;;;;;8.27;4.57;;;;;;;1.39;88.35;96192.31;5018162;28;20671;-55
2021/12/09 03:03:25;;;;;;;7.60;4.00;;;;;;;1.38;88.22;96188.88;5021109;28;20049;-56
2021/12/09 03:05:56;;;;;;;10.63;4.53;;;;;;;1.30;88.34;96189.16;5023348;28;20049;-55
2021/12/09 03:08:33;;;;;;;;;;;;;;;1.38;88.14;96186.19;5027401;28;20056;-54
2021/12/09 03:11:05;;;;;;;11.45;3.97;;;;;;;1.42;87.76;96190.03;5026501;28;19983;-55
2021/12/09 03:13:32;;;;;;;13.82;4.70;;;;;;;1.35;88.18;96181.28;5021738;28;20586;-55
2021/12/09 03:15:59;;;;;;;9.23;3.85;;;;;;;1.33;88.36;96182.56;5022609;28;20460;-53
2021/12/09 03:18:26;;;;;;;12.68;4.35;;;;;;;1.29;87.96;96179.53;5025970;28;20041;-53
2021/12/09 03:20:52;;;;;;;7.55;3.70;;;;;;;1.36;87.67;96182.13;5027122;28;20044;-51
2021/12/09 03:23:19;;;;;;;6.78;3.28;;;;;;;1.43;87.34;96172.16;5026747;28;20099;-55
2021/12/09 03:25:46;;;;;;;10.13;3.85;;;;;;;1.41;87.38;96176.94;5012546;28;20105;-54
2021/12/09 03:28:12;;;;;;;10.38;3.47;;;;;;;1.25;87.67;96181.81;5011810;28;20069;-53
2021/12/09 03:30:39;;;;;;;12.85;4.38;;;;;;;1.20;88.34;96171.00;5006832;28;20706;-51
2021/12/09 03:33:06;;;;;;;12.80;4.00;;;;;;;1.22;87.95;96173.44;5019801;28;20049;-55
2021/12/09 03:35:32;;;;;;;6.43;3.15;;;;;;;1.26;87.30;96178.09;5025808;28;20041;-55
2021/12/09 03:37:59;;;;;;;10.40;3.95;;;;;;;1.15;87.95;96184.97;5033112;28;20655;-52
2021/12/09 03:40:26;;;;;;;11.48;3.67;;;;;;;1.20;88.28;96187.00;5024345;28;20042;-53
2021/12/09 03:42:52;;;;;;;10.98;3.83;;;;;;;1.09;88.15;96190.38;5020831;28;20467;-52
2021/12/09 03:45:19;;;;;;;10.30;3.70;;;;;;;1.04;88.37;96181.19;5041548;28;20037;-55
2021/12/09 03:47:46;;;;;;;13.00;4.43;;;;;;;1.08;87.59;96183.44;5017735;28;20046;-55
2021/12/09 03:50:13;;;;;;;12.27;4.15;;;;;;;1.01;88.29;96178.16;5024075;28;20059;-53
2021/12/09 03:52:40;;;;;;;11.80;3.95;;;;;;;0.98;88.64;96179.41;5007368;28;20034;-52
2021/12/09 03:55:08;;;;;;;13.70;3.53;;;;;;;0.87;88.39;96186.28;5020363;28;20046;-54
2021/12/09 03:57:34;;;;;;;10.55;4.63;;;;;;;0.77;88.88;96191.28;5024762;28;20041;-53
2021/12/09 04:00:05;;;;;;;9.18;4.00;;;;;;;0.83;88.50;96193.09;5025595;28;20057;-54
2021/12/09 04:02:31;;;;;;;9.95;4.18;;;;;;;0.74;89.25;96197.88;5026573;28;20087;-53
2021/12/09 04:04:58;;;;;;;9.57;3.63;;;;;;;0.70;89.16;96198.53;5032560;28;20038;-53
2021/12/09 04:07:25;;;;;;;8.18;3.50;;;;;;;0.71;88.81;96192.16;5024596;28;20575;-54
2021/12/09 04:09:51;;;;;;;12.35;3.78;;;;;;;0.64;89.05;96205.53;5026115;28;20041;-54
2021/12/09 04:12:19;;;;;;;12.35;4.22;;;;;;;0.59;89.29;96200.84;5025107;28;20529;-57
2021/12/09 04:14:46;;;;;;;7.40;3.35;;;;;;;0.64;89.28;96200.22;5022601;28;20053;-57
2021/12/09 04:17:12;;;;;;;7.35;3.47;;;;;;;0.59;89.25;96202.72;5013344;28;20041;-58
2021/12/09 04:19:46;;;;;;;11.38;4.28;;;;;;;0.63;89.52;96203.94;5024078;28;20052;-59
2021/12/09 04:22:18;;;;;;;15.77;3.80;;;;;;;0.74;89.17;96202.41;5017622;28;20037;-59
2021/12/09 04:24:45;;;;;;;6.88;3.00;;;;;;;0.81;88.39;96199.69;5025568;28;20524;-59
2021/12/09 04:27:12;;;;;;;9.40;3.50;;;;;;;0.82;88.35;96202.13;5023753;28;20037;-58
2021/12/09 04:29:39;;;;;;;10.23;3.10;;;;;;;0.87;88.48;96198.78;5024379;28;20091;-59
2021/12/09 04:32:05;;;;;;;8.82;3.67;;;;;;;0.89;88.05;96202.84;5025936;28;20071;-57
2021/12/09 04:34:32;;;;;;;8.60;2.88;;;;;;;0.95;88.30;96214.50;5027643;28;20048;-56
2021/12/09 04:37:00;;;;;;;8.63;3.03;;;;;;;0.94;88.81;96209.38;5036769;28;20224;-57
2021/12/09 04:39:27;;;;;;;9.98;3.28;;;;;;;0.97;88.42;96211.63;5036879;28;20046;-59
2021/12/09 04:41:54;;;;;;;5.85;2.58;;;;;;;0.98;88.25;96206.06;5017527;28;20041;-58
2021/12/09 04:44:22;;;;;;;10.32;2.97;;;;;;;1.03;87.58;96203.56;5025509;28;20045;-57
2021/12/09 04:46:50;;;;;;;6.95;2.78;;;;;;;1.12;86.77;96200.63;5025607;28;20519;-58
2021/12/09 04:49:17;;;;;;;8.57;2.67;;;;;;;1.02;86.86;96203.78;5023381;28;20037;-59
2021/12/09 04:51:43;;;;;;;10.10;2.60;;;;;;;0.93;86.93;96216.59;5025362;28;20072;-59
2021/12/09 04:54:10;;;;;;;5.47;1.95;;;;;;;0.98;86.57;96218.56;5023320;28;20041;-59
2021/12/09 04:56:38;;;;;;;10.18;2.53;;;;;;;0.98;86.34;96232.72;5024963;28;20151;-59
2021/12/09 04:59:05;;;;;;;10.48;2.47;;;;;;;0.98;86.08;96235.41;5023167;28;20087;-57
2021/12/09 05:01:33;;;;;;;9.38;2.90;;;;;;;0.87;86.54;96236.94;5010005;28;20501;-57
2021/12/09 05:04:00;;;;;;;8.02;2.53;;;;;;;0.87;86.08;96252.91;5026850;28;20045;-57
2021/12/09 05:06:29;;;;;;;6.35;2.22;;;;;;;0.78;86.29;96249.69;5038247;28;20475;-57
2021/12/09 05:08:57;;;;;;;4.55;2.42;;;;;;;0.72;86.92;96253.25;5021700;28;20046;-56
2021/12/09 05:13:58;;;;;;;9.35;3.45;;;;;;;0.59;86.70;96266.66;5025490;28;20029;-57
2021/12/09 05:16:25;;;;;;;7.10;2.55;;;;;;;0.55;87.15;96270.78;5027493;28;20050;-57
2021/12/09 05:18:58;;;;;;;8.00;2.40;;;;;;;0.52;86.91;96282.69;5028304;28;20081;-58
2021/12/09 05:21:35;;;;;;;7.13;2.85;;;;;;;0.29;88.19;96285.91;5026224;28;20056;-59
2021/12/09 05:24:06;;;;;;;6.43;3.00;;;;;;;0.18;89.11;96288.19;5029270;28;20445;-58
2021/12/09 05:26:41;;;;;;;6.97;2.55;;;;;;;0.21;89.35;96289.59;5029587;28;20052;-57
2021/12/09 05:29:07;;;;;;;7.38;2.75;;;;;;;0.27;90.69;96302.06;5025920;28;20041;-58
2021/12/09 05:34:19;;;;;;;7.20;2.67;;;;;;;0.34;89.89;96308.16;5026842;28;20340;-57
2021/12/09 05:36:46;;;;;;;6.15;2.72;;;;;;;0.38;88.59;96298.72;5036890;28;20040;-59
2021/12/09 05:39:14;;;;;;;5.40;2.50;;;;;;;0.37;88.31;96304.28;5027490;28;20042;-58
2021/12/09 05:41:41;;;;;;;10.07;3.15;;;;;;;0.33;88.23;96309.19;5025401;28;20175;-58
2021/12/09 05:44:09;;;;;;;7.95;2.90;;;;;;;0.36;88.93;96314.09;5025677;28;20053;-56
2021/12/09 05:46:39;;;;;;;6.50;2.58;;;;;;;0.44;88.32;96322.88;5026087;28;20048;-56
2021/12/09 05:49:07;;;;;;;11.98;3.22;;;;;;;0.48;87.97;96319.56;5027817;28;20041;-55
2021/12/09 05:51:35;;;;;;;4.85;2.53;;;;;;;0.41;89.01;96316.16;5029485;28;20056;-58
2021/12/09 05:54:02;;;;;;;6.80;2.63;;;;;;;0.64;88.15;96318.28;5022669;28;20042;-57
2021/12/09 05:56:28;;;;;;;8.88;3.10;;;;;;;0.66;87.80;96319.91;5017802;28;20501;-54
2021/12/09 05:58:55;;;;;;;8.40;3.00;;;;;;;0.71;87.29;96317.41;5021882;28;20052;-59
2021/12/09 06:01:22;;;;;;;10.25;2.85;;;;;;;0.83;87.08;96318.34;5036265;28;20052;-59
2021/12/09 06:03:49;;;;;;;11.85;3.20;;;;;;;0.84;86.44;96321.81;5034757;28;20083;-59
2021/12/09 06:06:16;;;;;;;5.95;2.67;;;;;;;0.84;86.50;96327.97;5028501;28;20037;-57
2021/12/09 06:08:43;;;;;;;7.30;3.03;;;;;;;0.96;86.14;96327.28;5027105;28;20072;-58
2021/12/09 06:11:11;;;;;;;4.55;2.13;;;;;;;1.07;85.77;96328.44;5023405;28;20052;-58
2021/12/09 06:13:38;;;;;;;5.35;2.17;;;;;;;1.11;85.04;96330.44;5014338;28;20552;-58
2021/12/09 06:16:07;;;;;;;8.35;3.00;;;;;;;1.10;85.49;96334.13;5024798;28;20508;-57
2021/12/09 06:18:34;;;;;;;5.00;2.50;;;;;;;1.02;85.66;96334.41;5026886;28;20076;-59
2021/12/09 06:21:02;;;;;;;10.13;3.30;;;;;;;1.04;85.58;96332.34;5012275;28;20068;-59
2021/12/09 06:23:28;;;;;;;6.88;2.75;;;;;;;1.01;85.90;96330.09;5016769;28;20052;-59
2021/12/09 06:25:55;;;;;;;7.55;3.17;;;;;;;0.92;86.91;96339.41;5029034;28;20056;-59
2021/12/09 06:28:22;;;;;;;8.80;3.38;;;;;;;0.90;86.34;96323.63;5020657;28;20046;-59
2021/12/09 06:30:48;;;;;;;7.63;2.85;;;;;;;0.91;86.80;96327.91;5018844;28;20053;-56
2021/12/09 06:33:15;;;;;;;5.28;2.20;;;;;;;1.05;85.58;96333.97;5018616;28;20104;-56
2021/12/09 06:35:42;;;;;;;9.50;2.33;;;;;;;1.12;85.12;96337.41;5025290;28;20049;-56
2021/12/09 06:38:14;;;;;;;7.15;2.05;;;;;;;1.19;84.90;96334.69;5026848;28;20073;-54
2021/12/09 06:40:41;;;;;;;5.00;2.05;;;;;;;1.19;84.36;96341.88;5026624;28;20041;-57
2021/12/09 06:43:07;;;;;;;4.10;1.88;;;;;;;1.07;85.17;96336.44;5022181;28;20046;-56
2021/12/09 06:45:34;;;;;;;6.78;2.25;;;;;;;1.13;85.18;96333.72;5019218;28;20413;-57
2021/12/09 06:48:01;;;;;;;6.53;2.22;;;;;;;1.14;84.64;96331.88;5015209;28;20049;-57
2021/12/09 06:50:28;;;;;;;6.38;2.20;;;;;;;1.10;84.85;96331.47;5028472;28;20046;-55
2021/12/09 06:52:54;;;;;;;12.90;2.85;;;;;;;0.95;85.32;96329.13;5020567;28;20064;-54
2021/12/09 06:55:21;;;;;;;7.68;3.50;;;;;;;0.90;86.40;96334.28;5027479;28;20045;-55
2021/12/09 06:57:49;;;;;;;6.80;3.13;;;;;;;0.76;86.89;96329.06;5021434;28;20049;-58
2021/12/09 07:00:19;;;;;;;7.47;2.92;;;;;;;0.84;87.32;96333.28;5021136;28;20038;-57
2021/12/09 07:02:46;;;;;;;6.60;2.90;;;;;;;0.88;86.18;96329.16;5023241;28;20041;-58
2021/12/09 07:05:15;;;;;;;8.10;3.45;;;;;;;0.80;87.18;96326.75;5013745;28;20049;-58
2021/12/09 07:07:41;;;;;;;8.60;4.32;;;;;;;0.85;86.51;96331.47;5025218;28;20127;-58
2021/12/09 07:10:10;;;;;;;10.32;3.42;;;;;;;0.84;86.35;96333.28;5012959;28;20052;-58
2021/12/09 07:12:38;;;;;;;7.50;4.03;;;;;;;0.77;86.72;96332.50;5015507;28;20041;-58
2021/12/09 07:15:08;;;;;;;8.52;3.22;;;;;;;0.81;86.83;96333.72;5026360;28;20042;-58
2021/12/09 07:17:34;;;;;;;9.45;3.28;;;;;;;0.81;86.50;96331.06;5019935;28;20042;-58
2021/12/09 07:20:04;;;;;;;6.85;3.25;;;;;;;0.88;86.04;96339.00;5020176;28;20049;-56
2021/12/09 07:22:30;;;;;;;7.07;3.08;;;;;;;0.85;87.49;96336.78;5027505;28;20111;-57
2021/12/09 07:24:57;;;;;;;6.88;2.78;;;;;;;0.89;86.17;96325.47;5024041;28;20038;-56
2021/12/09 07:27:24;;;;;;;7.32;3.25;;;;;;;0.84;86.63;96325.31;5024994;28;20057;-57
2021/12/09 07:29:50;;;;;;;6.75;3.42;;;;;;;0.83;86.85;96326.34;5019246;28;20558;-58
2021/12/09 07:32:17;;;;;;;5.60;3.28;;;;;;;0.85;86.76;96340.25;5029411;28;20067;-57
2021/12/09 07:34:44;;;;;;;6.03;3.20;;;;;;;1.00;86.71;96337.28;5035962;28;20116;-57
2021/12/09 07:37:10;;;;;;;5.80;3.05;;;;;;;1.19;85.70;96345.38;5026629;28;20540;-57
2021/12/09 07:39:37;;;;;;;5.97;3.97;;;;;;;1.14;85.30;96347.88;5026219;28;20037;-57
2021/12/09 07:42:04;;;;;;;10.45;4.13;;;;;;;1.06;85.86;96354.25;5022706;28;20464;-57
2021/12/09 07:44:31;;;;;;;11.27;3.60;;;;;;;1.19;85.96;96357.88;5019064;28;20160;-57
2021/12/09 07:46:59;;;;;;;11.38;5.68;;;;;;;1.39;85.49;96363.03;5014258;28;20532;-56
2021/12/09 07:49:26;;;;;;;8.85;3.92;;;;;;;1.41;84.71;96361.78;5014788;28;20037;-57
2021/12/09 07:51:55;;;;;;;10.35;4.60;;;;;;;1.36;84.98;96361.63;5012311;28;20050;-59
2021/12/09 07:54:23;;;;;;;7.93;4.45;;;;;;;1.21;85.83;96369.94;5016265;28;20038;-59
2021/12/09 07:56:50;;;;;;;9.30;4.90;;;;;;;1.23;86.44;96362.56;5021109;28;20053;-56
2021/12/09 07:59:17;;;;;;;7.15;4.32;;;;;;;1.33;85.93;96367.41;5021280;28;20307;-60
2021/12/09 08:01:45;;;;;;;10.43;4.80;;;;;;;1.33;86.06;96362.09;5023176;28;20167;-60
2021/12/09 08:04:11;;;;;;;8.40;4.32;;;;;;;1.47;85.73;96370.75;5029072;28;20094;-59
2021/12/09 08:06:38;;;;;;;10.57;4.85;;;;;;;1.38;85.45;96367.56;5025827;28;20045;-60
2021/12/09 08:09:05;;;;;;;12.38;5.82;;;;;;;1.38;86.04;96367.56;5025976;28;20033;-59
2021/12/09 08:11:37;;;;;;;9.07;4.65;;;;;;;1.54;85.13;96365.38;5028844;28;20041;-61
2021/12/09 08:14:05;;;;;;;10.60;5.25;;;;;;;1.59;85.12;96364.72;5020457;28;20048;-60
2021/12/09 08:16:37;;;;;;;8.88;4.90;;;;;;;1.65;84.80;96359.31;5020446;28;20108;-62
2021/12/09 08:19:09;;;;;;;11.35;6.22;;;;;;;1.46;86.15;96371.81;5019169;28;20662;-61
2021/12/09 08:21:37;;;;;;;8.60;5.38;;;;;;;1.70;85.43;96366.69;5019752;28;20741;-61
2021/12/09 08:24:05;;;;;;;10.80;5.25;;;;;;;1.79;85.02;96373.38;5020168;28;20092;-61
2021/12/09 08:26:32;;;;;;;11.80;4.95;;;;;;;1.93;83.84;96387.41;5029179;28;20056;-60
2021/12/09 08:29:00;;;;;;;8.32;5.05;;;;;;;1.98;83.62;96380.59;5032805;28;20106;-61
2021/12/09 08:31:29;;;;;;;8.57;5.00;;;;;;;2.05;83.54;96381.31;5031231;28;20060;-60
2021/12/09 08:34:05;;;;;;;8.35;4.80;;;;;;;2.20;82.99;96383.63;5019039;28;20078;-62
2021/12/09 08:36:43;;;;;;;7.28;4.80;;;;;;;2.27;82.91;96379.03;5029026;28;20045;-61
2021/12/09 08:39:10;;;;;;;7.90;4.28;;;;;;;2.36;82.24;96384.06;5026588;28;20105;-61
2021/12/09 08:41:39;;;;;;;8.00;4.10;;;;;;;2.28;82.86;96387.88;5009900;28;20053;-61
2021/12/09 08:44:06;;;;;;;10.95;5.00;;;;;;;2.25;82.83;96391.78;5006426;28;20055;-61
2021/12/09 08:46:34;;;;;;;9.38;4.45;;;;;;;2.36;83.05;96382.19;5015557;28;20030;-62
2021/12/09 08:49:00;;;;;;;9.13;4.15;;;;;;;2.44;82.42;96387.25;5010962;28;20548;-61
2021/12/09 08:51:27;;;;;;;9.00;3.80;;;;;;;2.55;82.21;96395.56;5021901;28;20095;-60
2021/12/09 08:53:54;;;;;;;9.77;5.07;;;;;;;2.63;81.94;96391.75;5039682;28;20042;-62
2021/12/09 08:56:21;;;;;;;13.00;4.35;;;;;;;2.47;82.57;96394.81;5019440;28;20154;-60
2021/12/09 08:58:48;;;;;;;8.10;4.45;;;;;;;2.50;82.60;96403.44;5036097;28;20646;-61
2021/12/09 09:01:15;;;;;;;10.40;4.35;;;;;;;2.31;83.35;96403.44;5027622;28;20100;-61
2021/12/09 09:03:42;;;;;;;10.23;3.47;;;;;;;2.50;81.99;96400.75;5018965;28;20536;-63
2021/12/09 09:06:09;;;;;;;7.45;4.40;;;;;;;2.48;82.11;96398.31;5036182;28;20354;-60
2021/12/09 09:08:35;;;;;;;8.82;3.85;;;;;;;2.44;82.21;96410.50;5032231;28;20041;-63
2021/12/09 09:11:02;;;;;;;6.93;3.40;;;;;;;2.53;82.43;96410.97;5020818;28;20046;-61
2021/12/09 09:13:29;;;;;;;10.13;5.03;;;;;;;2.35;83.30;96417.97;5021453;28;20037;-64
2021/12/09 09:15:55;;;;;;;5.90;3.70;;;;;;;2.49;82.00;96412.47;5020518;28;20048;-58
2021/12/09 09:18:22;;;;;;;7.05;3.95;;;;;;;2.64;82.28;96414.75;5025012;28;20391;-58
2021/12/09 09:20:49;;;;;;;9.30;5.05;;;;;;;2.58;82.11;96424.50;5012024;28;20033;-58
2021/12/09 09:23:19;;;;;;;8.70;4.22;;;;;;;2.50;82.26;96416.78;5026604;28;20669;-58
2021/12/09 09:25:47;;;;;;;7.72;4.28;;;;;;;2.51;82.01;96423.78;5032675;28;20048;-58
2021/12/09 09:28:14;;;;;;;11.13;4.32;;;;;;;2.54;82.58;96434.03;5023097;28;20615;-58
2021/12/09 09:30:47;;;;;;;15.27;7.90;;;;;;;2.43;82.94;96425.69;5034317;28;20045;-63
2021/12/09 09:33:15;;;;;;;8.05;3.63;;;;;;;2.50;82.41;96428.28;5024447;28;20053;-58
2021/12/09 09:35:44;;;;;;;9.68;4.03;;;;;;;2.70;81.33;96430.72;5034816;28;20045;-60
2021/12/09 09:38:11;;;;;;;13.00;7.50;;;;;;;2.73;81.58;96438.28;5024757;28;20497;-61
2021/12/09 09:40:54;;;;;;;7.88;3.47;;;;;;;2.94;81.26;96428.16;5037290;28;20049;-61
2021/12/09 09:46:10;;;;;;;13.13;3.53;;;;;;;2.88;80.84;96442.44;5028333;28;20060;-57
2021/12/09 09:48:39;;;;;;;6.38;3.58;;;;;;;2.81;81.21;96439.03;5035071;28;20081;-58
2021/12/09 09:51:09;;;;;;;8.57;3.92;;;;;;;2.94;80.64;96444.19;5026050;28;20049;-62
2021/12/09 09:53:38;;;;;;;6.45;3.08;;;;;;;2.93;80.23;96434.56;5023409;28;20049;-63
2021/12/09 09:56:13;;;;;;;10.00;3.40;;;;;;;3.03;80.42;96441.22;5028080;28;20041;-63
2021/12/09 09:58:41;;;;;;;8.18;3.92;;;;;;;2.91;81.95;96444.66;5039190;28;20060;-63
2021/12/09 10:01:08;;;;;;;9.20;3.53;;;;;;;2.87;80.33;96448.81;5040898;28;20614;-61
2021/12/09 10:03:42;;;;;;;6.07;3.13;;;;;;;2.93;79.48;96442.56;5019591;28;20041;-56
2021/12/09 10:06:10;;;;;;;10.25;2.92;;;;;;;2.96;79.99;96447.47;5020492;28;21412;-59
2021/12/09 10:08:37;;;;;;;10.57;3.53;;;;;;;2.86;80.48;96453.38;5020638;28;20045;-58
2021/12/09 10:11:05;;;;;;;6.18;2.47;;;;;;;2.94;79.21;96452.22;5027544;28;20041;-59
2021/12/09 10:13:35;;;;;;;7.03;3.45;;;;;;;2.77;80.36;96459.25;5018984;28;20046;-58
2021/12/09 10:16:14;;;;;;;6.07;2.70;;;;;;;2.90;79.98;96459.06;5023927;28;20048;-59
2021/12/09 10:18:44;;;;;;;5.72;3.05;;;;;;;2.97;79.78;96458.97;5017280;28;20042;-57
2021/12/09 10:21:13;;;;;;;7.22;3.80;;;;;;;2.81;79.65;96449.72;5038083;28;20045;-57
2021/12/09 10:23:46;;;;;;;8.02;3.28;;;;;;;2.96;79.54;96455.50;5025101;28;20044;-62
2021/12/09 10:26:19;;;;;;;;;;;;;;;2.99;78.93;96454.25;5021298;28;20048;-61
2021/12/09 10:28:51;;;;;;;9.65;3.33;;;;;;;3.00;79.06;96458.53;5030213;28;19929;-61
2021/12/09 10:31:25;;;;;;;8.73;3.35;;;;;;;3.14;78.62;96459.19;5033559;28;20053;-60
2021/12/09 10:34:11;;;;;;;6.70;3.95;;;;;;;3.15;78.62;96460.81;5020239;28;20047;-60
2021/12/09 10:36:42;;;;;;;8.30;3.90;;;;;;;3.11;79.35;96451.59;5028650;28;20037;-61
2021/12/09 10:39:17;;;;;;;9.95;3.00;;;;;;;3.09;79.07;96457.19;5041502;28;20041;-59
2021/12/09 10:41:44;;;;;;;7.25;3.58;;;;;;;3.17;78.75;96457.91;5016489;28;20413;-58
2021/12/09 10:44:12;;;;;;;10.75;3.75;;;;;;;3.20;77.46;96450.22;5023411;28;20562;-58
2021/12/09 10:47:07;;;;;;;10.45;3.80;;;;;;;3.21;78.54;96451.06;5012648;28;20428;-57
2021/12/09 10:49:45;;;;;;;7.53;3.03;;;;;;;3.30;77.70;96443.50;5020743;28;20065;-58
2021/12/09 10:52:21;;;;;;;8.27;3.25;;;;;;;3.51;77.57;96439.50;5027629;28;20562;-58
2021/12/09 10:54:47;;;;;;;10.82;5.88;;;;;;;3.32;78.59;96434.22;5040962;28;20041;-57
2021/12/09 10:57:32;;;;;;;6.82;3.70;;;;;;;3.21;78.06;96433.13;5016439;28;20038;-57
2021/12/09 11:00:16;;;;;;;5.47;2.97;;;;;;;3.35;79.01;96433.75;5021277;28;20061;-58
2021/12/09 11:03:04;;;;;;;11.50;4.30;;;;;;;3.21;78.58;96427.78;5015953;28;20125;-56
2021/12/09 11:05:34;;;;;;;12.27;5.85;;;;;;;3.10;77.88;96432.06;5018961;28;20057;-57
2021/12/09 11:08:16;;;;;;;6.20;3.88;;;;;;;3.39;76.55;96431.44;5019659;28;20056;-57
2021/12/09 11:10:47;;;;;;;8.18;2.92;;;;;;;3.43;76.57;96429.13;5025841;28;20046;-57
2021/12/09 11:13:21;;;;;;;13.18;5.03;;;;;;;3.38;76.93;96421.78;5023099;28;20050;-58
2021/12/09 11:15:57;;;;;;;13.02;6.85;;;;;;;3.40;77.46;96419.72;5019142;28;20049;-58
2021/12/09 11:18:31;;;;;;;8.73;3.58;;;;;;;3.43;77.68;96423.78;5026628;28;20049;-57
2021/12/09 11:21:04;;;;;;;9.90;4.30;;;;;;;3.27;76.52;96422.59;5016551;28;20049;-61
2021/12/09 11:23:40;;;;;;;7.40;2.38;;;;;;;3.53;75.97;96431.25;5024174;28;20064;-59
2021/12/09 11:27:04;;;;;;;5.75;2.50;;;;;;;3.58;76.10;96421.47;5017275;28;20041;-58
2021/12/09 11:29:30;;;;;;;6.63;2.40;;;;;;;3.54;75.67;96414.16;5017103;28;20057;-60
2021/12/09 11:32:09;;;;;;;5.88;2.30;;;;;;;3.61;75.20;96421.00;5016711;28;20049;-61
2021/12/09 11:34:46;;;;;;;6.22;2.72;;;;;;;3.40;75.62;96416.19;5022944;28;20547;-62
2021/12/09 11:39:57;;;;;;;5.00;2.15;;;;;;;3.42;75.57;96422.97;5029672;28;20534;-62
2021/12/09 11:42:35;;;;;;;5.47;2.33;;;;;;;3.44;75.43;96423.56;5029655;28;20049;-62
2021/12/09 11:45:06;;;;;;;4.82;2.35;;;;;;;3.61;75.40;96421.00;5012212;28;20042;-56
2021/12/09 11:47:33;;;;;;;6.95;2.85;;;;;;;3.47;74.79;96423.06;5018506;28;20523;-63
2021/12/09 11:50:11;;;;;;;4.40;1.35;;;;;;;3.52;74.69;96422.41;5024288;28;20060;-62
2021/12/09 11:52:38;;;;;;;5.72;1.95;;;;;;;3.57;74.85;96424.41;5019200;28;20054;-63
2021/12/09 11:55:08;;;;;;;9.90;2.40;;;;;;;3.60;74.50;96415.88;5028372;28;20049;-63
2021/12/09 12:11:57;;;;;;;7.47;2.80;;;;;;;3.07;75.11;96399.59;5031502;28;20103;-60